sensor_id;sensor_type;location;lat;lon;timestamp;pressure;altitude;pressure_sealevel;temperature
48894;BMP280;34710;35.798;139.446;2023-02-12T00:01:42;101473.21;;;18.42
48894;BMP280;34710;35.798;139.446;2023-02-12T00:04:11;101476.01;;;18.49
48894;BMP280;34710;35.798;139.446;2023-02-12T00:06:40;101475.19;;;18.24
48894;BMP280;34710;35.798;139.446;2023-02-12T00:09:10;101470.90;;;18.35
48894;BMP280;34710;35.798;139.446;2023-02-12T00:11:39;101462.53;;;18.87
48894;BMP280;34710;35.798;139.446;2023-02-12T00:14:09;101453.82;;;19.01
48894;BMP280;34710;35.798;139.446;2023-02-12T00:16:38;101444.38;;;18.89
48894;BMP280;34710;35.798;139.446;2023-02-12T00:19:08;101449.08;;;19.26
48894;BMP280;34710;35.798;139.446;2023-02-12T00:21:37;101456.08;;;19.36
48894;BMP280;34710;35.798;139.446;2023-02-12T00:24:06;101459.29;;;19.83
48894;BMP280;34710;35.798;139.446;2023-02-12T00:26:36;101452.68;;;20.27
48894;BMP280;34710;35.798;139.446;2023-02-12T00:29:05;101450.01;;;20.16
48894;BMP280;34710;35.798;139.446;2023-02-12T00:31:34;101454.28;;;19.43
48894;BMP280;34710;35.798;139.446;2023-02-12T00:34:04;101457.52;;;20.36
48894;BMP280;34710;35.798;139.446;2023-02-12T00:36:33;101454.42;;;20.92
48894;BMP280;34710;35.798;139.446;2023-02-12T00:39:02;101447.22;;;21.32
48894;BMP280;34710;35.798;139.446;2023-02-12T00:41:32;101447.09;;;19.58
48894;BMP280;34710;35.798;139.446;2023-02-12T00:44:02;101436.04;;;21.51
48894;BMP280;34710;35.798;139.446;2023-02-12T00:46:31;101427.69;;;22.22
48894;BMP280;34710;35.798;139.446;2023-02-12T00:49:00;101408.97;;;22.45
48894;BMP280;34710;35.798;139.446;2023-02-12T00:51:30;101400.06;;;22.45
48894;BMP280;34710;35.798;139.446;2023-02-12T00:53:59;101394.81;;;23.21
48894;BMP280;34710;35.798;139.446;2023-02-12T00:56:28;101387.24;;;23.97
48894;BMP280;34710;35.798;139.446;2023-02-12T00:58:57;101382.06;;;24.54
48894;BMP280;34710;35.798;139.446;2023-02-12T01:01:27;101375.88;;;21.81
48894;BMP280;34710;35.798;139.446;2023-02-12T01:03:57;101365.89;;;22.14
48894;BMP280;34710;35.798;139.446;2023-02-12T01:06:26;101354.15;;;23.46
48894;BMP280;34710;35.798;139.446;2023-02-12T01:08:55;101339.78;;;24.10
48894;BMP280;34710;35.798;139.446;2023-02-12T01:11:25;101327.38;;;25.40
48894;BMP280;34710;35.798;139.446;2023-02-12T01:13:54;101324.85;;;25.99
48894;BMP280;34710;35.798;139.446;2023-02-12T01:16:24;101320.96;;;25.26
48894;BMP280;34710;35.798;139.446;2023-02-12T01:18:54;101319.07;;;24.35
48894;BMP280;34710;35.798;139.446;2023-02-12T01:21:25;101313.50;;;25.03
48894;BMP280;34710;35.798;139.446;2023-02-12T01:23:55;101309.82;;;26.15
48894;BMP280;34710;35.798;139.446;2023-02-12T01:26:25;101302.95;;;26.31
48894;BMP280;34710;35.798;139.446;2023-02-12T01:28:56;101303.38;;;25.88
48894;BMP280;34710;35.798;139.446;2023-02-12T01:31:29;101291.48;;;25.14
48894;BMP280;34710;35.798;139.446;2023-02-12T01:33:59;101283.71;;;25.87
48894;BMP280;34710;35.798;139.446;2023-02-12T01:36:30;101273.22;;;25.21
48894;BMP280;34710;35.798;139.446;2023-02-12T01:38:59;101265.53;;;24.55
48894;BMP280;34710;35.798;139.446;2023-02-12T01:41:31;101257.52;;;24.35
48894;BMP280;34710;35.798;139.446;2023-02-12T01:44:18;101247.90;;;25.39
48894;BMP280;34710;35.798;139.446;2023-02-12T01:46:54;101238.99;;;25.65
48894;BMP280;34710;35.798;139.446;2023-02-12T01:49:27;101238.24;;;22.75
48894;BMP280;34710;35.798;139.446;2023-02-12T01:52:02;101226.03;;;21.69
48894;BMP280;34710;35.798;139.446;2023-02-12T01:54:34;101214.95;;;23.57
48894;BMP280;34710;35.798;139.446;2023-02-12T01:57:05;101203.72;;;24.25
48894;BMP280;34710;35.798;139.446;2023-02-12T01:59:36;101201.87;;;23.83
48894;BMP280;34710;35.798;139.446;2023-02-12T02:02:06;101188.99;;;24.06
48894;BMP280;34710;35.798;139.446;2023-02-12T02:04:39;101186.32;;;22.47
48894;BMP280;34710;35.798;139.446;2023-02-12T02:07:10;101175.76;;;23.67
48894;BMP280;34710;35.798;139.446;2023-02-12T02:09:40;101171.20;;;23.31
48894;BMP280;34710;35.798;139.446;2023-02-12T02:12:09;101165.05;;;23.14
48894;BMP280;34710;35.798;139.446;2023-02-12T02:14:39;101161.34;;;20.49
48894;BMP280;34710;35.798;139.446;2023-02-12T02:17:26;101148.83;;;20.02
48894;BMP280;34710;35.798;139.446;2023-02-12T02:20:16;101138.54;;;22.08
48894;BMP280;34710;35.798;139.446;2023-02-12T02:23:06;101128.59;;;18.81
48894;BMP280;34710;35.798;139.446;2023-02-12T02:25:54;101114.15;;;17.28
48894;BMP280;34710;35.798;139.446;2023-02-12T02:30:42;101101.77;;;16.60
48894;BMP280;34710;35.798;139.446;2023-02-12T02:33:23;101092.68;;;17.41
48894;BMP280;34710;35.798;139.446;2023-02-12T02:36:10;101082.74;;;17.75
48894;BMP280;34710;35.798;139.446;2023-02-12T02:38:47;101077.75;;;18.51
48894;BMP280;34710;35.798;139.446;2023-02-12T02:41:22;101078.39;;;18.45
48894;BMP280;34710;35.798;139.446;2023-02-12T02:43:55;101083.63;;;17.99
48894;BMP280;34710;35.798;139.446;2023-02-12T02:46:29;101072.83;;;18.80
48894;BMP280;34710;35.798;139.446;2023-02-12T02:49:02;101057.54;;;19.40
48894;BMP280;34710;35.798;139.446;2023-02-12T02:51:36;101046.49;;;18.81
48894;BMP280;34710;35.798;139.446;2023-02-12T02:54:12;101044.55;;;19.05
48894;BMP280;34710;35.798;139.446;2023-02-12T02:56:46;101038.27;;;19.07
48894;BMP280;34710;35.798;139.446;2023-02-12T02:59:20;101041.61;;;19.11
48894;BMP280;34710;35.798;139.446;2023-02-12T03:01:57;101039.29;;;17.34
48894;BMP280;34710;35.798;139.446;2023-02-12T03:04:32;101027.87;;;17.38
48894;BMP280;34710;35.798;139.446;2023-02-12T03:07:07;101017.89;;;17.24
48894;BMP280;34710;35.798;139.446;2023-02-12T03:09:39;101015.77;;;16.60
48894;BMP280;34710;35.798;139.446;2023-02-12T03:12:15;101013.66;;;18.03
48894;BMP280;34710;35.798;139.446;2023-02-12T03:14:49;101008.66;;;17.42
48894;BMP280;34710;35.798;139.446;2023-02-12T03:17:22;100991.49;;;18.29
48894;BMP280;34710;35.798;139.446;2023-02-12T03:19:58;100992.21;;;16.88
48894;BMP280;34710;35.798;139.446;2023-02-12T03:22:32;100986.33;;;16.86
48894;BMP280;34710;35.798;139.446;2023-02-12T03:25:08;100983.58;;;16.96
48894;BMP280;34710;35.798;139.446;2023-02-12T03:27:41;100967.52;;;14.54
48894;BMP280;34710;35.798;139.446;2023-02-12T03:30:13;100965.89;;;16.82
48894;BMP280;34710;35.798;139.446;2023-02-12T03:32:48;100958.44;;;16.71
48894;BMP280;34710;35.798;139.446;2023-02-12T03:35:24;100952.00;;;18.11
48894;BMP280;34710;35.798;139.446;2023-02-12T03:38:04;100941.14;;;19.80
48894;BMP280;34710;35.798;139.446;2023-02-12T03:40:41;100934.44;;;20.38
48894;BMP280;34710;35.798;139.446;2023-02-12T03:43:20;100932.29;;;20.57
48894;BMP280;34710;35.798;139.446;2023-02-12T03:45:54;100929.22;;;20.14
48894;BMP280;34710;35.798;139.446;2023-02-12T03:48:29;100925.18;;;19.50
48894;BMP280;34710;35.798;139.446;2023-02-12T03:51:08;100928.35;;;19.62
48894;BMP280;34710;35.798;139.446;2023-02-12T03:53:42;100928.84;;;19.10
48894;BMP280;34710;35.798;139.446;2023-02-12T03:56:14;100914.42;;;18.22
48894;BMP280;34710;35.798;139.446;2023-02-12T03:58:46;100904.62;;;17.21
48894;BMP280;34710;35.798;139.446;2023-02-12T04:01:15;100895.53;;;18.00
48894;BMP280;34710;35.798;139.446;2023-02-12T04:03:45;100888.84;;;18.55
48894;BMP280;34710;35.798;139.446;2023-02-12T04:06:24;100888.16;;;17.07
48894;BMP280;34710;35.798;139.446;2023-02-12T04:08:55;100886.91;;;17.00
48894;BMP280;34710;35.798;139.446;2023-02-12T04:11:33;100896.26;;;18.23
48894;BMP280;34710;35.798;139.446;2023-02-12T04:14:19;100899.78;;;19.24
48894;BMP280;34710;35.798;139.446;2023-02-12T04:16:56;100899.80;;;20.53
48894;BMP280;34710;35.798;139.446;2023-02-12T04:19:39;100909.80;;;20.41
48894;BMP280;34710;35.798;139.446;2023-02-12T04:22:22;100906.50;;;20.07
48894;BMP280;34710;35.798;139.446;2023-02-12T04:25:04;100900.76;;;19.62
48894;BMP280;34710;35.798;139.446;2023-02-12T04:27:39;100896.38;;;18.36
48894;BMP280;34710;35.798;139.446;2023-02-12T04:30:17;100903.18;;;16.99
48894;BMP280;34710;35.798;139.446;2023-02-12T04:32:52;100898.63;;;17.52
48894;BMP280;34710;35.798;139.446;2023-02-12T04:35:26;100895.45;;;17.11
48894;BMP280;34710;35.798;139.446;2023-02-12T04:38:04;100898.24;;;16.02
48894;BMP280;34710;35.798;139.446;2023-02-12T04:40:37;100888.11;;;17.00
48894;BMP280;34710;35.798;139.446;2023-02-12T04:43:07;100880.49;;;16.49
48894;BMP280;34710;35.798;139.446;2023-02-12T04:45:37;100859.16;;;17.85
48894;BMP280;34710;35.798;139.446;2023-02-12T04:48:06;100859.51;;;18.56
48894;BMP280;34710;35.798;139.446;2023-02-12T04:50:40;100865.32;;;19.11
48894;BMP280;34710;35.798;139.446;2023-02-12T04:53:11;100859.98;;;20.31
48894;BMP280;34710;35.798;139.446;2023-02-12T04:55:41;100856.88;;;19.81
48894;BMP280;34710;35.798;139.446;2023-02-12T04:58:10;100852.57;;;19.32
48894;BMP280;34710;35.798;139.446;2023-02-12T05:00:39;100848.50;;;19.63
48894;BMP280;34710;35.798;139.446;2023-02-12T05:03:08;100842.68;;;19.85
48894;BMP280;34710;35.798;139.446;2023-02-12T05:05:38;100840.96;;;19.98
48894;BMP280;34710;35.798;139.446;2023-02-12T05:08:08;100840.86;;;19.21
48894;BMP280;34710;35.798;139.446;2023-02-12T05:10:37;100844.63;;;18.39
48894;BMP280;34710;35.798;139.446;2023-02-12T05:13:07;100845.50;;;17.26
48894;BMP280;34710;35.798;139.446;2023-02-12T05:15:38;100846.38;;;19.37
48894;BMP280;34710;35.798;139.446;2023-02-12T05:18:07;100847.31;;;18.68
48894;BMP280;34710;35.798;139.446;2023-02-12T05:20:37;100860.22;;;18.18
48894;BMP280;34710;35.798;139.446;2023-02-12T05:23:06;100870.06;;;16.91
48894;BMP280;34710;35.798;139.446;2023-02-12T05:25:36;100861.47;;;17.98
48894;BMP280;34710;35.798;139.446;2023-02-12T05:28:05;100863.98;;;18.76
48894;BMP280;34710;35.798;139.446;2023-02-12T05:30:35;100864.39;;;19.65
48894;BMP280;34710;35.798;139.446;2023-02-12T05:33:04;100862.94;;;19.56
48894;BMP280;34710;35.798;139.446;2023-02-12T05:35:35;100867.54;;;19.55
48894;BMP280;34710;35.798;139.446;2023-02-12T05:38:04;100866.50;;;19.93
48894;BMP280;34710;35.798;139.446;2023-02-12T05:40:33;100864.30;;;19.10
48894;BMP280;34710;35.798;139.446;2023-02-12T05:43:03;100858.65;;;18.45
48894;BMP280;34710;35.798;139.446;2023-02-12T05:45:33;100849.94;;;18.84
48894;BMP280;34710;35.798;139.446;2023-02-12T05:48:02;100838.35;;;20.27
48894;BMP280;34710;35.798;139.446;2023-02-12T05:50:31;100833.26;;;20.98
48894;BMP280;34710;35.798;139.446;2023-02-12T05:53:01;100823.21;;;22.00
48894;BMP280;34710;35.798;139.446;2023-02-12T05:55:30;100824.70;;;20.42
48894;BMP280;34710;35.798;139.446;2023-02-12T05:57:59;100821.94;;;20.10
48894;BMP280;34710;35.798;139.446;2023-02-12T06:00:28;100823.43;;;19.06
48894;BMP280;34710;35.798;139.446;2023-02-12T06:02:58;100833.24;;;18.87
48894;BMP280;34710;35.798;139.446;2023-02-12T06:05:27;100830.36;;;18.55
48894;BMP280;34710;35.798;139.446;2023-02-12T06:07:57;100841.48;;;17.91
48894;BMP280;34710;35.798;139.446;2023-02-12T06:10:26;100847.28;;;17.46
48894;BMP280;34710;35.798;139.446;2023-02-12T06:12:55;100849.51;;;17.01
48894;BMP280;34710;35.798;139.446;2023-02-12T06:15:25;100850.73;;;15.92
48894;BMP280;34710;35.798;139.446;2023-02-12T06:17:54;100846.17;;;16.77
48894;BMP280;34710;35.798;139.446;2023-02-12T06:20:23;100848.90;;;15.55
48894;BMP280;34710;35.798;139.446;2023-02-12T06:22:53;100848.80;;;16.85
48894;BMP280;34710;35.798;139.446;2023-02-12T06:25:22;100845.25;;;15.85
48894;BMP280;34710;35.798;139.446;2023-02-12T06:27:52;100836.88;;;16.22
48894;BMP280;34710;35.798;139.446;2023-02-12T06:30:21;100827.86;;;17.25
48894;BMP280;34710;35.798;139.446;2023-02-12T06:32:51;100819.57;;;17.39
48894;BMP280;34710;35.798;139.446;2023-02-12T06:35:21;100818.43;;;17.72
48894;BMP280;34710;35.798;139.446;2023-02-12T06:37:50;100832.23;;;15.94
48894;BMP280;34710;35.798;139.446;2023-02-12T06:40:20;100839.95;;;15.71
48894;BMP280;34710;35.798;139.446;2023-02-12T06:42:49;100840.12;;;15.12
48894;BMP280;34710;35.798;139.446;2023-02-12T06:45:18;100843.67;;;15.95
48894;BMP280;34710;35.798;139.446;2023-02-12T06:47:47;100850.31;;;15.66
48894;BMP280;34710;35.798;139.446;2023-02-12T06:50:17;100861.34;;;15.24
48894;BMP280;34710;35.798;139.446;2023-02-12T06:52:46;100868.75;;;15.21
48894;BMP280;34710;35.798;139.446;2023-02-12T06:55:16;100870.89;;;15.43
48894;BMP280;34710;35.798;139.446;2023-02-12T06:57:46;100871.36;;;13.50
48894;BMP280;34710;35.798;139.446;2023-02-12T07:00:15;100870.36;;;15.35
48894;BMP280;34710;35.798;139.446;2023-02-12T07:02:44;100869.74;;;15.62
48894;BMP280;34710;35.798;139.446;2023-02-12T07:05:19;100868.85;;;16.89
48894;BMP280;34710;35.798;139.446;2023-02-12T07:07:49;100872.03;;;16.99
48894;BMP280;34710;35.798;139.446;2023-02-12T07:10:18;100876.89;;;16.57
48894;BMP280;34710;35.798;139.446;2023-02-12T07:12:48;100878.79;;;16.42
48894;BMP280;34710;35.798;139.446;2023-02-12T07:15:17;100874.54;;;16.85
48894;BMP280;34710;35.798;139.446;2023-02-12T07:17:46;100873.89;;;16.18
48894;BMP280;34710;35.798;139.446;2023-02-12T07:20:15;100873.58;;;15.63
48894;BMP280;34710;35.798;139.446;2023-02-12T07:22:45;100882.28;;;16.39
48894;BMP280;34710;35.798;139.446;2023-02-12T07:25:15;100882.71;;;17.14
48894;BMP280;34710;35.798;139.446;2023-02-12T07:27:43;100886.88;;;17.28
48894;BMP280;34710;35.798;139.446;2023-02-12T07:30:13;100889.63;;;16.02
48894;BMP280;34710;35.798;139.446;2023-02-12T07:32:43;100889.80;;;15.80
48894;BMP280;34710;35.798;139.446;2023-02-12T07:35:12;100889.21;;;16.55
48894;BMP280;34710;35.798;139.446;2023-02-12T07:37:42;100889.15;;;16.50
48894;BMP280;34710;35.798;139.446;2023-02-12T07:40:12;100893.76;;;15.77
48894;BMP280;34710;35.798;139.446;2023-02-12T07:42:41;100902.37;;;16.09
48894;BMP280;34710;35.798;139.446;2023-02-12T07:45:11;100895.24;;;16.89
48894;BMP280;34710;35.798;139.446;2023-02-12T07:47:41;100890.53;;;17.40
48894;BMP280;34710;35.798;139.446;2023-02-12T07:50:10;100889.35;;;16.83
48894;BMP280;34710;35.798;139.446;2023-02-12T07:52:39;100888.92;;;17.83
48894;BMP280;34710;35.798;139.446;2023-02-12T07:55:09;100886.81;;;17.52
48894;BMP280;34710;35.798;139.446;2023-02-12T07:57:39;100889.21;;;18.53
48894;BMP280;34710;35.798;139.446;2023-02-12T08:00:09;100891.46;;;18.86
48894;BMP280;34710;35.798;139.446;2023-02-12T08:02:38;100899.11;;;18.72
48894;BMP280;34710;35.798;139.446;2023-02-12T08:05:08;100894.35;;;18.81
48894;BMP280;34710;35.798;139.446;2023-02-12T08:07:38;100900.31;;;19.08
48894;BMP280;34710;35.798;139.446;2023-02-12T08:10:08;100908.30;;;19.26
48894;BMP280;34710;35.798;139.446;2023-02-12T08:12:38;100903.20;;;19.27
48894;BMP280;34710;35.798;139.446;2023-02-12T08:15:07;100902.11;;;19.40
48894;BMP280;34710;35.798;139.446;2023-02-12T08:17:36;100900.69;;;19.47
48894;BMP280;34710;35.798;139.446;2023-02-12T08:20:07;100899.95;;;19.28
48894;BMP280;34710;35.798;139.446;2023-02-12T08:22:36;100894.04;;;19.48
48894;BMP280;34710;35.798;139.446;2023-02-12T08:25:06;100890.18;;;19.18
48894;BMP280;34710;35.798;139.446;2023-02-12T08:27:35;100886.73;;;19.08
48894;BMP280;34710;35.798;139.446;2023-02-12T08:30:06;100874.15;;;18.91
48894;BMP280;34710;35.798;139.446;2023-02-12T08:32:36;100867.10;;;19.10
48894;BMP280;34710;35.798;139.446;2023-02-12T08:35:06;100861.54;;;19.00
48894;BMP280;34710;35.798;139.446;2023-02-12T08:37:35;100854.12;;;18.76
48894;BMP280;34710;35.798;139.446;2023-02-12T08:40:05;100855.53;;;18.53
48894;BMP280;34710;35.798;139.446;2023-02-12T08:42:34;100856.29;;;18.17
48894;BMP280;34710;35.798;139.446;2023-02-12T08:45:04;100855.55;;;18.36
48894;BMP280;34710;35.798;139.446;2023-02-12T08:47:34;100854.45;;;18.47
48894;BMP280;34710;35.798;139.446;2023-02-12T08:50:03;100854.93;;;18.23
48894;BMP280;34710;35.798;139.446;2023-02-12T08:52:34;100852.20;;;18.17
48894;BMP280;34710;35.798;139.446;2023-02-12T08:55:04;100849.98;;;18.06
48894;BMP280;34710;35.798;139.446;2023-02-12T08:57:33;100844.75;;;17.96
48894;BMP280;34710;35.798;139.446;2023-02-12T09:00:03;100844.45;;;17.95
48894;BMP280;34710;35.798;139.446;2023-02-12T09:02:32;100845.16;;;17.84
48894;BMP280;34710;35.798;139.446;2023-02-12T09:05:02;100848.84;;;17.80
48894;BMP280;34710;35.798;139.446;2023-02-12T09:07:31;100854.04;;;17.74
48894;BMP280;34710;35.798;139.446;2023-02-12T09:10:00;100859.96;;;18.12
48894;BMP280;34710;35.798;139.446;2023-02-12T09:12:29;100856.87;;;17.81
48894;BMP280;34710;35.798;139.446;2023-02-12T09:14:59;100853.22;;;17.69
48894;BMP280;34710;35.798;139.446;2023-02-12T09:17:28;100842.88;;;17.64
48894;BMP280;34710;35.798;139.446;2023-02-12T09:19:57;100839.12;;;17.30
48894;BMP280;34710;35.798;139.446;2023-02-12T09:22:26;100838.10;;;17.30
48894;BMP280;34710;35.798;139.446;2023-02-12T09:24:56;100838.54;;;17.49
48894;BMP280;34710;35.798;139.446;2023-02-12T09:27:25;100837.43;;;17.10
48894;BMP280;34710;35.798;139.446;2023-02-12T09:29:53;100841.59;;;17.50
48894;BMP280;34710;35.798;139.446;2023-02-12T09:32:23;100839.45;;;17.48
48894;BMP280;34710;35.798;139.446;2023-02-12T09:34:52;100837.88;;;17.43
48894;BMP280;34710;35.798;139.446;2023-02-12T09:37:22;100841.30;;;17.02
48894;BMP280;34710;35.798;139.446;2023-02-12T09:39:52;100841.91;;;17.14
48894;BMP280;34710;35.798;139.446;2023-02-12T09:42:33;100848.22;;;16.56
48894;BMP280;34710;35.798;139.446;2023-02-12T09:45:09;100852.01;;;17.12
48894;BMP280;34710;35.798;139.446;2023-02-12T09:47:49;100849.57;;;17.15
48894;BMP280;34710;35.798;139.446;2023-02-12T09:50:32;100852.94;;;16.77
48894;BMP280;34710;35.798;139.446;2023-02-12T09:53:04;100856.21;;;16.93
48894;BMP280;34710;35.798;139.446;2023-02-12T09:55:34;100849.68;;;16.89
48894;BMP280;34710;35.798;139.446;2023-02-12T09:58:10;100850.28;;;16.87
48894;BMP280;34710;35.798;139.446;2023-02-12T10:00:42;100846.10;;;16.56
48894;BMP280;34710;35.798;139.446;2023-02-12T10:03:14;100838.44;;;16.44
48894;BMP280;34710;35.798;139.446;2023-02-12T10:05:47;100839.48;;;16.33
48894;BMP280;34710;35.798;139.446;2023-02-12T10:08:27;100847.20;;;16.32
48894;BMP280;34710;35.798;139.446;2023-02-12T10:11:08;100849.00;;;16.16
48894;BMP280;34710;35.798;139.446;2023-02-12T10:13:48;100846.99;;;16.17
48894;BMP280;34710;35.798;139.446;2023-02-12T10:16:40;100848.19;;;15.88
48894;BMP280;34710;35.798;139.446;2023-02-12T10:19:25;100849.39;;;16.12
48894;BMP280;34710;35.798;139.446;2023-02-12T10:22:06;100850.14;;;15.89
48894;BMP280;34710;35.798;139.446;2023-02-12T10:24:49;100848.87;;;15.81
48894;BMP280;34710;35.798;139.446;2023-02-12T10:27:33;100855.50;;;15.99
48894;BMP280;34710;35.798;139.446;2023-02-12T10:30:15;100862.07;;;15.69
48894;BMP280;34710;35.798;139.446;2023-02-12T10:32:49;100867.04;;;15.48
48894;BMP280;34710;35.798;139.446;2023-02-12T10:35:21;100859.84;;;15.56
48894;BMP280;34710;35.798;139.446;2023-02-12T10:37:56;100858.08;;;14.75
48894;BMP280;34710;35.798;139.446;2023-02-12T10:40:28;100866.91;;;15.02
48894;BMP280;34710;35.798;139.446;2023-02-12T10:43:00;100872.37;;;15.24
48894;BMP280;34710;35.798;139.446;2023-02-12T10:45:32;100880.67;;;14.82
48894;BMP280;34710;35.798;139.446;2023-02-12T10:48:09;100880.96;;;14.82
48894;BMP280;34710;35.798;139.446;2023-02-12T10:50:46;100876.18;;;15.19
48894;BMP280;34710;35.798;139.446;2023-02-12T10:53:22;100873.32;;;15.27
48894;BMP280;34710;35.798;139.446;2023-02-12T10:56:08;100870.01;;;15.46
48894;BMP280;34710;35.798;139.446;2023-02-12T10:58:41;100876.93;;;15.47
48894;BMP280;34710;35.798;139.446;2023-02-12T11:01:18;100883.66;;;15.46
48894;BMP280;34710;35.798;139.446;2023-02-12T11:03:48;100880.26;;;15.39
48894;BMP280;34710;35.798;139.446;2023-02-12T11:06:20;100873.89;;;15.41
48894;BMP280;34710;35.798;139.446;2023-02-12T11:08:50;100870.13;;;15.23
48894;BMP280;34710;35.798;139.446;2023-02-12T11:11:22;100862.54;;;15.29
48894;BMP280;34710;35.798;139.446;2023-02-12T11:13:57;100852.86;;;15.32
48894;BMP280;34710;35.798;139.446;2023-02-12T11:16:30;100849.34;;;15.29
48894;BMP280;34710;35.798;139.446;2023-02-12T11:19:01;100842.11;;;15.04
48894;BMP280;34710;35.798;139.446;2023-02-12T11:21:31;100841.95;;;15.29
48894;BMP280;34710;35.798;139.446;2023-02-12T11:24:28;100846.56;;;15.19
48894;BMP280;34710;35.798;139.446;2023-02-12T11:27:19;100846.07;;;15.14
48894;BMP280;34710;35.798;139.446;2023-02-12T11:30:11;100851.44;;;14.83
48894;BMP280;34710;35.798;139.446;2023-02-12T11:32:41;100869.33;;;14.59
48894;BMP280;34710;35.798;139.446;2023-02-12T11:35:15;100883.30;;;14.45
48894;BMP280;34710;35.798;139.446;2023-02-12T11:37:46;100895.06;;;14.74
48894;BMP280;34710;35.798;139.446;2023-02-12T11:40:20;100901.50;;;14.95
48894;BMP280;34710;35.798;139.446;2023-02-12T11:42:52;100896.30;;;15.06
48894;BMP280;34710;35.798;139.446;2023-02-12T11:45:25;100893.57;;;14.78
48894;BMP280;34710;35.798;139.446;2023-02-12T11:47:59;100888.67;;;14.86
48894;BMP280;34710;35.798;139.446;2023-02-12T11:50:29;100883.88;;;14.70
48894;BMP280;34710;35.798;139.446;2023-02-12T11:53:03;100885.69;;;14.89
48894;BMP280;34710;35.798;139.446;2023-02-12T11:55:36;100887.01;;;14.33
48894;BMP280;34710;35.798;139.446;2023-02-12T11:58:15;100888.32;;;14.62
48894;BMP280;34710;35.798;139.446;2023-02-12T12:00:49;100877.22;;;14.64
48894;BMP280;34710;35.798;139.446;2023-02-12T12:03:26;100864.72;;;14.78
48894;BMP280;34710;35.798;139.446;2023-02-12T12:06:04;100860.96;;;14.88
48894;BMP280;34710;35.798;139.446;2023-02-12T12:08:38;100860.64;;;14.58
48894;BMP280;34710;35.798;139.446;2023-02-12T12:11:13;100867.50;;;14.82
48894;BMP280;34710;35.798;139.446;2023-02-12T12:13:49;100878.69;;;14.37
48894;BMP280;34710;35.798;139.446;2023-02-12T12:16:28;100867.36;;;14.41
48894;BMP280;34710;35.798;139.446;2023-02-12T12:19:04;100858.64;;;14.58
48894;BMP280;34710;35.798;139.446;2023-02-12T12:21:39;100854.89;;;14.59
48894;BMP280;34710;35.798;139.446;2023-02-12T12:24:14;100842.95;;;14.69
48894;BMP280;34710;35.798;139.446;2023-02-12T12:26:49;100846.24;;;14.81
48894;BMP280;34710;35.798;139.446;2023-02-12T12:29:28;100839.39;;;14.58
48894;BMP280;34710;35.798;139.446;2023-02-12T12:32:05;100839.46;;;14.61
48894;BMP280;34710;35.798;139.446;2023-02-12T12:34:35;100839.55;;;14.64
48894;BMP280;34710;35.798;139.446;2023-02-12T12:37:23;100834.41;;;14.65
48894;BMP280;34710;35.798;139.446;2023-02-12T12:40:13;100822.24;;;14.54
48894;BMP280;34710;35.798;139.446;2023-02-12T12:43:03;100817.14;;;14.87
48894;BMP280;34710;35.798;139.446;2023-02-12T12:45:54;100812.80;;;14.94
48894;BMP280;34710;35.798;139.446;2023-02-12T12:48:42;100803.43;;;14.51
48894;BMP280;34710;35.798;139.446;2023-02-12T12:51:25;100804.87;;;14.81
48894;BMP280;34710;35.798;139.446;2023-02-12T12:54:07;100813.56;;;14.93
48894;BMP280;34710;35.798;139.446;2023-02-12T12:56:50;100815.57;;;15.03
48894;BMP280;34710;35.798;139.446;2023-02-12T12:59:39;100800.05;;;15.17
48894;BMP280;34710;35.798;139.446;2023-02-12T13:03:24;100797.37;;;14.86
48894;BMP280;34710;35.798;139.446;2023-02-12T13:06:16;100802.45;;;14.68
48894;BMP280;34710;35.798;139.446;2023-02-12T13:09:03;100799.60;;;14.63
48894;BMP280;34710;35.798;139.446;2023-02-12T13:11:46;100798.47;;;14.39
48894;BMP280;34710;35.798;139.446;2023-02-12T13:14:28;100786.18;;;14.73
48894;BMP280;34710;35.798;139.446;2023-02-12T13:17:03;100777.17;;;14.66
48894;BMP280;34710;35.798;139.446;2023-02-12T13:19:41;100774.53;;;14.67
48894;BMP280;34710;35.798;139.446;2023-02-12T13:22:20;100759.75;;;14.75
48894;BMP280;34710;35.798;139.446;2023-02-12T13:24:55;100753.00;;;14.78
48894;BMP280;34710;35.798;139.446;2023-02-12T13:27:29;100741.08;;;14.29
48894;BMP280;34710;35.798;139.446;2023-02-12T13:30:04;100754.09;;;14.71
48894;BMP280;34710;35.798;139.446;2023-02-12T13:32:39;100762.46;;;14.39
48894;BMP280;34710;35.798;139.446;2023-02-12T13:35:17;100768.39;;;14.49
48894;BMP280;34710;35.798;139.446;2023-02-12T13:37:49;100769.95;;;14.26
48894;BMP280;34710;35.798;139.446;2023-02-12T13:40:21;100775.00;;;14.55
48894;BMP280;34710;35.798;139.446;2023-02-12T13:42:57;100782.63;;;14.47
48894;BMP280;34710;35.798;139.446;2023-02-12T13:45:40;100791.42;;;14.29
48894;BMP280;34710;35.798;139.446;2023-02-12T13:48:29;100808.15;;;14.16
48894;BMP280;34710;35.798;139.446;2023-02-12T13:51:12;100814.88;;;14.33
48894;BMP280;34710;35.798;139.446;2023-02-12T13:53:53;100803.40;;;14.29
48894;BMP280;34710;35.798;139.446;2023-02-12T13:56:36;100785.88;;;14.25
48894;BMP280;34710;35.798;139.446;2023-02-12T13:59:39;100802.00;;;14.21
48894;BMP280;34710;35.798;139.446;2023-02-12T14:02:28;100809.36;;;14.22
48894;BMP280;34710;35.798;139.446;2023-02-12T14:05:31;100810.04;;;14.22
48894;BMP280;34710;35.798;139.446;2023-02-12T14:08:03;100801.92;;;14.26
48894;BMP280;34710;35.798;139.446;2023-02-12T14:10:35;100797.97;;;14.19